sensor_id;sensor_type;location;lat;lon;timestamp;pressure;altitude;pressure_sealevel;temperature;humidity
47753;BME280;2038;51.728;6.674;2023-04-24T00:00:59;99313.16;;;11.63;100.00
47753;BME280;2038;51.728;6.674;2023-04-24T00:03:27;99316.00;;;11.71;100.00
47753;BME280;2038;51.728;6.674;2023-04-24T00:05:54;99319.84;;;11.82;100.00
47753;BME280;2038;51.728;6.674;2023-04-24T00:08:21;99308.19;;;11.68;100.00
47753;BME280;2038;51.728;6.674;2023-04-24T00:10:48;99318.88;;;11.79;100.00
47753;BME280;2038;51.728;6.674;2023-04-24T00:13:14;99323.78;;;11.74;100.00
47753;BME280;2038;51.728;6.674;2023-04-24T00:15:41;99323.66;;;11.71;100.00
47753;BME280;2038;51.728;6.674;2023-04-24T00:18:07;99323.00;;;11.75;100.00
47753;BME280;2038;51.728;6.674;2023-04-24T00:20:33;99335.91;;;11.80;100.00
47753;BME280;2038;51.728;6.674;2023-04-24T00:23:01;99330.69;;;11.77;100.00
47753;BME280;2038;51.728;6.674;2023-04-24T00:25:27;99323.03;;;11.77;100.00
47753;BME280;2038;51.728;6.674;2023-04-24T00:27:53;99322.28;;;11.79;100.00
47753;BME280;2038;51.728;6.674;2023-04-24T00:30:20;99322.41;;;11.82;100.00
47753;BME280;2038;51.728;6.674;2023-04-24T00:32:46;99319.31;;;11.91;100.00
47753;BME280;2038;51.728;6.674;2023-04-24T00:35:12;99324.88;;;11.81;100.00
47753;BME280;2038;51.728;6.674;2023-04-24T00:37:40;99314.50;;;11.76;100.00
47753;BME280;2038;51.728;6.674;2023-04-24T00:40:07;99336.78;;;11.80;100.00
47753;BME280;2038;51.728;6.674;2023-04-24T00:42:33;99331.94;;;11.88;100.00
47753;BME280;2038;51.728;6.674;2023-04-24T00:45:01;99338.34;;;11.99;100.00
47753;BME280;2038;51.728;6.674;2023-04-24T00:47:29;99330.91;;;12.05;100.00
47753;BME280;2038;51.728;6.674;2023-04-24T00:49:55;99333.28;;;12.00;100.00
47753;BME280;2038;51.728;6.674;2023-04-24T00:52:22;99319.69;;;12.01;100.00
47753;BME280;2038;51.728;6.674;2023-04-24T00:54:50;99331.59;;;12.01;100.00
47753;BME280;2038;51.728;6.674;2023-04-24T00:57:16;99334.50;;;11.88;100.00
47753;BME280;2038;51.728;6.674;2023-04-24T00:59:43;99340.94;;;12.00;100.00
47753;BME280;2038;51.728;6.674;2023-04-24T01:02:10;99336.81;;;12.04;100.00
47753;BME280;2038;51.728;6.674;2023-04-24T01:04:38;99312.56;;;11.70;100.00
47753;BME280;2038;51.728;6.674;2023-04-24T01:07:05;99340.56;;;11.69;100.00
47753;BME280;2038;51.728;6.674;2023-04-24T01:09:37;99333.72;;;11.68;100.00
47753;BME280;2038;51.728;6.674;2023-04-24T01:12:09;99324.34;;;11.67;100.00
47753;BME280;2038;51.728;6.674;2023-04-24T01:14:35;99336.16;;;11.65;100.00
47753;BME280;2038;51.728;6.674;2023-04-24T01:17:02;99335.69;;;11.73;100.00
47753;BME280;2038;51.728;6.674;2023-04-24T01:19:28;99337.53;;;11.78;100.00
47753;BME280;2038;51.728;6.674;2023-04-24T01:21:58;99334.88;;;11.75;100.00
47753;BME280;2038;51.728;6.674;2023-04-24T01:24:29;99340.03;;;11.76;100.00
47753;BME280;2038;51.728;6.674;2023-04-24T01:26:56;99327.81;;;11.69;100.00
47753;BME280;2038;51.728;6.674;2023-04-24T01:29:22;99335.41;;;11.67;100.00
47753;BME280;2038;51.728;6.674;2023-04-24T01:31:49;99329.31;;;11.64;100.00
47753;BME280;2038;51.728;6.674;2023-04-24T01:34:16;99335.06;;;11.58;100.00
47753;BME280;2038;51.728;6.674;2023-04-24T01:36:45;99323.91;;;11.56;100.00
47753;BME280;2038;51.728;6.674;2023-04-24T01:39:12;99334.63;;;11.48;100.00
47753;BME280;2038;51.728;6.674;2023-04-24T01:41:39;99348.22;;;11.47;100.00
47753;BME280;2038;51.728;6.674;2023-04-24T01:44:05;99337.88;;;11.44;100.00
47753;BME280;2038;51.728;6.674;2023-04-24T01:46:32;99335.88;;;11.35;100.00
47753;BME280;2038;51.728;6.674;2023-04-24T01:49:00;99336.72;;;11.36;100.00
47753;BME280;2038;51.728;6.674;2023-04-24T01:51:27;99328.13;;;11.34;100.00
47753;BME280;2038;51.728;6.674;2023-04-24T01:53:53;99338.34;;;11.34;100.00
47753;BME280;2038;51.728;6.674;2023-04-24T01:56:21;99339.91;;;11.30;100.00
47753;BME280;2038;51.728;6.674;2023-04-24T01:58:49;99327.09;;;11.28;100.00
47753;BME280;2038;51.728;6.674;2023-04-24T02:01:21;99337.34;;;11.30;100.00
47753;BME280;2038;51.728;6.674;2023-04-24T02:03:49;99339.72;;;11.25;100.00
47753;BME280;2038;51.728;6.674;2023-04-24T02:06:16;99337.84;;;11.21;100.00
47753;BME280;2038;51.728;6.674;2023-04-24T02:08:42;99335.50;;;11.26;100.00
47753;BME280;2038;51.728;6.674;2023-04-24T02:11:11;99343.44;;;11.34;100.00
47753;BME280;2038;51.728;6.674;2023-04-24T02:13:38;99341.09;;;11.17;100.00
47753;BME280;2038;51.728;6.674;2023-04-24T02:16:04;99340.97;;;11.14;100.00
47753;BME280;2038;51.728;6.674;2023-04-24T02:18:30;99334.88;;;11.11;100.00
47753;BME280;2038;51.728;6.674;2023-04-24T02:20:56;99345.25;;;11.15;100.00
47753;BME280;2038;51.728;6.674;2023-04-24T02:23:23;99334.75;;;11.08;100.00
47753;BME280;2038;51.728;6.674;2023-04-24T02:25:49;99335.19;;;10.98;100.00
47753;BME280;2038;51.728;6.674;2023-04-24T02:28:15;99344.44;;;10.96;100.00
47753;BME280;2038;51.728;6.674;2023-04-24T02:30:41;99345.75;;;10.86;100.00
47753;BME280;2038;51.728;6.674;2023-04-24T02:33:08;99344.19;;;10.90;100.00
47753;BME280;2038;51.728;6.674;2023-04-24T02:35:34;99344.13;;;11.09;100.00
47753;BME280;2038;51.728;6.674;2023-04-24T02:38:00;99346.19;;;11.17;100.00
47753;BME280;2038;51.728;6.674;2023-04-24T02:40:26;99343.91;;;11.03;100.00
47753;BME280;2038;51.728;6.674;2023-04-24T02:42:52;99337.75;;;11.18;100.00
47753;BME280;2038;51.728;6.674;2023-04-24T02:45:19;99346.44;;;11.23;100.00
47753;BME280;2038;51.728;6.674;2023-04-24T02:47:45;99342.84;;;11.18;100.00
47753;BME280;2038;51.728;6.674;2023-04-24T02:50:11;99343.47;;;11.13;100.00
47753;BME280;2038;51.728;6.674;2023-04-24T02:52:37;99339.31;;;11.15;100.00
47753;BME280;2038;51.728;6.674;2023-04-24T02:55:04;99347.78;;;11.15;100.00
47753;BME280;2038;51.728;6.674;2023-04-24T02:57:30;99351.00;;;11.10;100.00
47753;BME280;2038;51.728;6.674;2023-04-24T02:59:57;99339.34;;;11.16;100.00
47753;BME280;2038;51.728;6.674;2023-04-24T03:02:23;99334.81;;;11.09;100.00
47753;BME280;2038;51.728;6.674;2023-04-24T03:04:49;99337.78;;;11.20;100.00
47753;BME280;2038;51.728;6.674;2023-04-24T03:07:15;99336.59;;;11.12;100.00
47753;BME280;2038;51.728;6.674;2023-04-24T03:09:42;99340.91;;;11.13;100.00
47753;BME280;2038;51.728;6.674;2023-04-24T03:12:08;99353.22;;;11.23;100.00
47753;BME280;2038;51.728;6.674;2023-04-24T03:14:34;99358.88;;;11.16;100.00
47753;BME280;2038;51.728;6.674;2023-04-24T03:17:00;99350.59;;;11.21;100.00
47753;BME280;2038;51.728;6.674;2023-04-24T03:19:27;99364.03;;;11.17;100.00
47753;BME280;2038;51.728;6.674;2023-04-24T03:21:53;99357.31;;;11.19;100.00
47753;BME280;2038;51.728;6.674;2023-04-24T03:24:19;99358.34;;;11.23;100.00
47753;BME280;2038;51.728;6.674;2023-04-24T03:26:46;99362.91;;;11.32;100.00
47753;BME280;2038;51.728;6.674;2023-04-24T03:29:12;99371.63;;;11.16;100.00
47753;BME280;2038;51.728;6.674;2023-04-24T03:31:38;99364.59;;;11.10;100.00
47753;BME280;2038;51.728;6.674;2023-04-24T03:34:05;99369.44;;;11.04;100.00
47753;BME280;2038;51.728;6.674;2023-04-24T03:36:31;99373.19;;;11.12;100.00
47753;BME280;2038;51.728;6.674;2023-04-24T03:38:57;99364.59;;;11.10;100.00
47753;BME280;2038;51.728;6.674;2023-04-24T03:41:24;99364.47;;;11.07;100.00
47753;BME280;2038;51.728;6.674;2023-04-24T03:43:50;99367.38;;;10.96;100.00
47753;BME280;2038;51.728;6.674;2023-04-24T03:46:16;99367.13;;;10.90;100.00
47753;BME280;2038;51.728;6.674;2023-04-24T03:48:42;99366.47;;;10.94;100.00
47753;BME280;2038;51.728;6.674;2023-04-24T03:51:09;99373.34;;;10.96;100.00
47753;BME280;2038;51.728;6.674;2023-04-24T03:53:35;99371.63;;;10.95;100.00
47753;BME280;2038;51.728;6.674;2023-04-24T03:56:01;99362.16;;;10.93;100.00
47753;BME280;2038;51.728;6.674;2023-04-24T03:58:28;99371.38;;;10.89;100.00
47753;BME280;2038;51.728;6.674;2023-04-24T04:00:54;99372.25;;;10.90;100.00
47753;BME280;2038;51.728;6.674;2023-04-24T04:03:22;99375.59;;;10.89;100.00
47753;BME280;2038;51.728;6.674;2023-04-24T04:05:48;99377.53;;;10.94;100.00
47753;BME280;2038;51.728;6.674;2023-04-24T04:08:15;99364.53;;;10.88;100.00
47753;BME280;2038;51.728;6.674;2023-04-24T04:10:41;99362.84;;;10.89;100.00
47753;BME280;2038;51.728;6.674;2023-04-24T04:13:07;99368.41;;;10.99;100.00
47753;BME280;2038;51.728;6.674;2023-04-24T04:15:33;99362.34;;;10.97;100.00
47753;BME280;2038;51.728;6.674;2023-04-24T04:18:00;99373.44;;;10.98;100.00
47753;BME280;2038;51.728;6.674;2023-04-24T04:20:26;99379.41;;;10.98;100.00
47753;BME280;2038;51.728;6.674;2023-04-24T04:22:52;99380.59;;;11.06;100.00
47753;BME280;2038;51.728;6.674;2023-04-24T04:25:18;99390.63;;;11.03;100.00
47753;BME280;2038;51.728;6.674;2023-04-24T04:27:46;99380.19;;;10.97;100.00
47753;BME280;2038;51.728;6.674;2023-04-24T04:30:14;99385.09;;;10.93;100.00
47753;BME280;2038;51.728;6.674;2023-04-24T04:32:40;99381.16;;;10.99;100.00
47753;BME280;2038;51.728;6.674;2023-04-24T04:35:07;99386.19;;;11.18;100.00
47753;BME280;2038;51.728;6.674;2023-04-24T04:37:33;99387.09;;;11.20;100.00
47753;BME280;2038;51.728;6.674;2023-04-24T04:40:00;99387.88;;;11.18;100.00
47753;BME280;2038;51.728;6.674;2023-04-24T04:42:32;99397.88;;;11.13;100.00
47753;BME280;2038;51.728;6.674;2023-04-24T04:45:00;99400.31;;;11.10;100.00
47753;BME280;2038;51.728;6.674;2023-04-24T04:47:27;99401.41;;;11.17;100.00
47753;BME280;2038;51.728;6.674;2023-04-24T04:49:54;99400.53;;;11.16;100.00
47753;BME280;2038;51.728;6.674;2023-04-24T04:52:20;99408.63;;;11.06;100.00
47753;BME280;2038;51.728;6.674;2023-04-24T04:54:50;99411.03;;;11.03;100.00
47753;BME280;2038;51.728;6.674;2023-04-24T04:57:17;99404.25;;;11.04;100.00
47753;BME280;2038;51.728;6.674;2023-04-24T04:59:43;99408.44;;;11.02;100.00
47753;BME280;2038;51.728;6.674;2023-04-24T05:02:09;99400.50;;;10.96;100.00
47753;BME280;2038;51.728;6.674;2023-04-24T05:04:36;99392.81;;;10.94;100.00
47753;BME280;2038;51.728;6.674;2023-04-24T05:07:02;99404.72;;;11.14;100.00
47753;BME280;2038;51.728;6.674;2023-04-24T05:09:28;99406.31;;;11.12;100.00
47753;BME280;2038;51.728;6.674;2023-04-24T05:11:55;99404.44;;;11.08;100.00
47753;BME280;2038;51.728;6.674;2023-04-24T05:14:22;99411.31;;;11.09;100.00
47753;BME280;2038;51.728;6.674;2023-04-24T05:16:48;99411.03;;;11.03;100.00
47753;BME280;2038;51.728;6.674;2023-04-24T05:19:14;99410.44;;;11.09;100.00
47753;BME280;2038;51.728;6.674;2023-04-24T05:21:41;99416.75;;;10.98;100.00
47753;BME280;2038;51.728;6.674;2023-04-24T05:24:07;99411.94;;;10.85;100.00
47753;BME280;2038;51.728;6.674;2023-04-24T05:26:34;99405.28;;;10.88;100.00
47753;BME280;2038;51.728;6.674;2023-04-24T05:29:01;99411.41;;;11.12;100.00
47753;BME280;2038;51.728;6.674;2023-04-24T05:31:28;99403.03;;;11.15;100.00
47753;BME280;2038;51.728;6.674;2023-04-24T05:33:54;99404.84;;;11.17;100.00
47753;BME280;2038;51.728;6.674;2023-04-24T05:36:20;99406.59;;;11.18;100.00
47753;BME280;2038;51.728;6.674;2023-04-24T05:38:46;99410.69;;;11.15;100.00
47753;BME280;2038;51.728;6.674;2023-04-24T05:41:12;99416.59;;;11.14;100.00
47753;BME280;2038;51.728;6.674;2023-04-24T05:43:39;99408.19;;;11.16;100.00
47753;BME280;2038;51.728;6.674;2023-04-24T05:46:05;99412.50;;;11.17;100.00
47753;BME280;2038;51.728;6.674;2023-04-24T05:48:31;99413.38;;;11.18;100.00
47753;BME280;2038;51.728;6.674;2023-04-24T05:50:57;99420.22;;;11.19;100.00
47753;BME280;2038;51.728;6.674;2023-04-24T05:53:24;99419.25;;;11.17;100.00
47753;BME280;2038;51.728;6.674;2023-04-24T05:55:50;99418.34;;;11.15;100.00
47753;BME280;2038;51.728;6.674;2023-04-24T05:58:16;99418.19;;;11.12;100.00
47753;BME280;2038;51.728;6.674;2023-04-24T06:00:42;99411.97;;;11.05;100.00
47753;BME280;2038;51.728;6.674;2023-04-24T06:03:10;99414.84;;;11.13;100.00
47753;BME280;2038;51.728;6.674;2023-04-24T06:05:36;99425.53;;;11.04;100.00
47753;BME280;2038;51.728;6.674;2023-04-24T06:08:02;99417.84;;;11.03;100.00
47753;BME280;2038;51.728;6.674;2023-04-24T06:10:29;99417.75;;;11.01;100.00
47753;BME280;2038;51.728;6.674;2023-04-24T06:12:55;99421.06;;;10.99;100.00
47753;BME280;2038;51.728;6.674;2023-04-24T06:15:28;99417.84;;;11.03;100.00
47753;BME280;2038;51.728;6.674;2023-04-24T06:17:56;99419.38;;;10.99;100.00
47753;BME280;2038;51.728;6.674;2023-04-24T06:20:23;99418.44;;;10.97;100.00
47753;BME280;2038;51.728;6.674;2023-04-24T06:22:50;99419.13;;;10.93;100.00
47753;BME280;2038;51.728;6.674;2023-04-24T06:25:16;99417.50;;;10.95;100.00
47753;BME280;2038;51.728;6.674;2023-04-24T06:27:43;99419.31;;;10.98;100.00
47753;BME280;2038;51.728;6.674;2023-04-24T06:30:09;99416.63;;;10.95;100.00
47753;BME280;2038;51.728;6.674;2023-04-24T06:32:36;99422.41;;;10.91;100.00
47753;BME280;2038;51.728;6.674;2023-04-24T06:35:02;99420.44;;;11.04;100.00
47753;BME280;2038;51.728;6.674;2023-04-24T06:37:29;99417.69;;;11.00;100.00
47753;BME280;2038;51.728;6.674;2023-04-24T06:39:55;99416.63;;;10.95;100.00
47753;BME280;2038;51.728;6.674;2023-04-24T06:42:22;99410.66;;;10.94;100.00
47753;BME280;2038;51.728;6.674;2023-04-24T06:44:49;99412.41;;;10.95;100.00
47753;BME280;2038;51.728;6.674;2023-04-24T06:47:15;99414.22;;;10.98;100.00
47753;BME280;2038;51.728;6.674;2023-04-24T06:49:42;99416.84;;;10.99;100.00
47753;BME280;2038;51.728;6.674;2023-04-24T06:52:08;99403.75;;;10.92;100.00
47753;BME280;2038;51.728;6.674;2023-04-24T06:54:35;99410.16;;;10.82;100.00
47753;BME280;2038;51.728;6.674;2023-04-24T06:57:01;99409.16;;;10.78;100.00
47753;BME280;2038;51.728;6.674;2023-04-24T06:59:29;99414.25;;;10.78;100.00
47753;BME280;2038;51.728;6.674;2023-04-24T07:01:56;99410.53;;;10.72;100.00
47753;BME280;2038;51.728;6.674;2023-04-24T07:04:22;99410.53;;;10.72;100.00
47753;BME280;2038;51.728;6.674;2023-04-24T07:06:50;99415.38;;;10.66;100.00
47753;BME280;2038;51.728;6.674;2023-04-24T07:09:17;99418.94;;;10.50;100.00
47753;BME280;2038;51.728;6.674;2023-04-24T07:11:44;99415.09;;;10.60;100.00
47753;BME280;2038;51.728;6.674;2023-04-24T07:14:11;99418.06;;;10.50;100.00
47753;BME280;2038;51.728;6.674;2023-04-24T07:16:38;99418.66;;;10.44;100.00
47753;BME280;2038;51.728;6.674;2023-04-24T07:19:04;99417.94;;;10.47;100.00
47753;BME280;2038;51.728;6.674;2023-04-24T07:21:32;99410.31;;;10.47;100.00
47753;BME280;2038;51.728;6.674;2023-04-24T07:23:58;99421.53;;;10.52;100.00
47753;BME280;2038;51.728;6.674;2023-04-24T07:26:26;99423.56;;;10.59;100.00
47753;BME280;2038;51.728;6.674;2023-04-24T07:28:54;99423.16;;;10.50;100.00
47753;BME280;2038;51.728;6.674;2023-04-24T07:31:21;99419.88;;;10.52;100.00
47753;BME280;2038;51.728;6.674;2023-04-24T07:33:47;99421.75;;;10.56;100.00
47753;BME280;2038;51.728;6.674;2023-04-24T07:36:14;99428.84;;;10.63;100.00
47753;BME280;2038;51.728;6.674;2023-04-24T07:38:45;99437.56;;;10.68;100.00
47753;BME280;2038;51.728;6.674;2023-04-24T07:41:14;99435.97;;;10.90;100.00
47753;BME280;2038;51.728;6.674;2023-04-24T07:43:41;99442.41;;;10.82;100.00
47753;BME280;2038;51.728;6.674;2023-04-24T07:46:08;99442.13;;;10.75;100.00
47753;BME280;2038;51.728;6.674;2023-04-24T07:48:35;99447.69;;;10.86;100.00
47753;BME280;2038;51.728;6.674;2023-04-24T07:51:02;99450.31;;;11.07;100.00
47753;BME280;2038;51.728;6.674;2023-04-24T07:53:28;99463.84;;;11.06;100.00
47753;BME280;2038;51.728;6.674;2023-04-24T07:55:57;99456.06;;;11.03;100.00
47753;BME280;2038;51.728;6.674;2023-04-24T07:58:23;99457.88;;;11.05;100.00
47753;BME280;2038;51.728;6.674;2023-04-24T08:00:49;99466.19;;;11.01;100.00
47753;BME280;2038;51.728;6.674;2023-04-24T08:03:16;99472.97;;;11.01;100.00
47753;BME280;2038;51.728;6.674;2023-04-24T08:05:45;99470.41;;;11.01;100.00
47753;BME280;2038;51.728;6.674;2023-04-24T08:08:11;99478.63;;;10.94;100.00
47753;BME280;2038;51.728;6.674;2023-04-24T08:10:37;99484.59;;;10.94;100.00
47753;BME280;2038;51.728;6.674;2023-04-24T08:13:03;99480.28;;;10.74;100.00
47753;BME280;2038;51.728;6.674;2023-04-24T08:15:30;99489.03;;;10.79;100.00
47753;BME280;2038;51.728;6.674;2023-04-24T08:17:56;99485.66;;;10.80;100.00
47753;BME280;2038;51.728;6.674;2023-04-24T08:20:22;99493.84;;;10.73;100.00
47753;BME280;2038;51.728;6.674;2023-04-24T08:22:49;99506.69;;;10.76;100.00
47753;BME280;2038;51.728;6.674;2023-04-24T08:25:15;99515.88;;;10.72;100.00
47753;BME280;2038;51.728;6.674;2023-04-24T08:27:41;99521.66;;;10.68;100.00
47753;BME280;2038;51.728;6.674;2023-04-24T08:30:08;99535.25;;;10.69;100.00
47753;BME280;2038;51.728;6.674;2023-04-24T08:32:34;99536.69;;;10.82;100.00
47753;BME280;2038;51.728;6.674;2023-04-24T08:35:00;99548.91;;;10.89;100.00
47753;BME280;2038;51.728;6.674;2023-04-24T08:37:27;99551.72;;;10.95;100.00
47753;BME280;2038;51.728;6.674;2023-04-24T08:39:53;99558.84;;;10.83;100.00
47753;BME280;2038;51.728;6.674;2023-04-24T08:42:20;99558.88;;;10.84;100.00
47753;BME280;2038;51.728;6.674;2023-04-24T08:44:49;99562.97;;;10.80;100.00
47753;BME280;2038;51.728;6.674;2023-04-24T08:47:16;99573.72;;;10.93;100.00
47753;BME280;2038;51.728;6.674;2023-04-24T08:49:43;99570.38;;;10.94;100.00
47753;BME280;2038;51.728;6.674;2023-04-24T08:52:11;99574.19;;;11.03;100.00
47753;BME280;2038;51.728;6.674;2023-04-24T08:54:40;99574.00;;;10.99;100.00
47753;BME280;2038;51.728;6.674;2023-04-24T08:57:09;99583.34;;;10.98;100.00
47753;BME280;2038;51.728;6.674;2023-04-24T08:59:38;99590.56;;;10.89;100.00
47753;BME280;2038;51.728;6.674;2023-04-24T09:02:05;99591.31;;;10.69;100.00
47753;BME280;2038;51.728;6.674;2023-04-24T09:04:35;99611.13;;;10.74;100.00
47753;BME280;2038;51.728;6.674;2023-04-24T09:07:04;99615.00;;;10.49;100.00
47753;BME280;2038;51.728;6.674;2023-04-24T09:09:33;99613.69;;;10.57;100.00
47753;BME280;2038;51.728;6.674;2023-04-24T09:12:01;99634.50;;;10.48;100.00
47753;BME280;2038;51.728;6.674;2023-04-24T09:14:28;99620.47;;;10.39;100.00
47753;BME280;2038;51.728;6.674;2023-04-24T09:16:57;99635.50;;;10.52;100.00
47753;BME280;2038;51.728;6.674;2023-04-24T09:19:23;99650.44;;;10.44;100.00
47753;BME280;2038;51.728;6.674;2023-04-24T09:21:49;99658.13;;;10.28;100.00
47753;BME280;2038;51.728;6.674;2023-04-24T09:24:20;99672.72;;;10.14;100.00
47753;BME280;2038;51.728;6.674;2023-04-24T09:26:49;99674.06;;;10.24;100.00
47753;BME280;2038;51.728;6.674;2023-04-24T09:29:27;99684.97;;;10.21;100.00
47753;BME280;2038;51.728;6.674;2023-04-24T09:31:54;99694.66;;;10.28;100.00
47753;BME280;2038;51.728;6.674;2023-04-24T09:34:25;99701.03;;;10.20;100.00
47753;BME280;2038;51.728;6.674;2023-04-24T09:36:52;99718.06;;;10.21;100.00
47753;BME280;2038;51.728;6.674;2023-04-24T09:39:20;99722.06;;;10.16;100.00
47753;BME280;2038;51.728;6.674;2023-04-24T09:41:54;99714.25;;;10.13;100.00
47753;BME280;2038;51.728;6.674;2023-04-24T09:44:28;99732.59;;;10.08;100.00
47753;BME280;2038;51.728;6.674;2023-04-24T09:46:57;99747.00;;;10.07;100.00
47753;BME280;2038;51.728;6.674;2023-04-24T09:49:28;99750.38;;;10.06;100.00
47753;BME280;2038;51.728;6.674;2023-04-24T09:52:10;99754.09;;;9.97;100.00
47753;BME280;2038;51.728;6.674;2023-04-24T09:54:39;99761.34;;;9.89;100.00
47753;BME280;2038;51.728;6.674;2023-04-24T09:57:07;99767.81;;;9.99;100.00
47753;BME280;2038;51.728;6.674;2023-04-24T09:59:33;99756.25;;;10.05;100.00
47753;BME280;2038;51.728;6.674;2023-04-24T10:02:00;99772.81;;;9.97;100.00
47753;BME280;2038;51.728;6.674;2023-04-24T10:04:28;99766.94;;;10.30;100.00
47753;BME280;2038;51.728;6.674;2023-04-24T10:06:56;99775.75;;;10.21;100.00
47753;BME280;2038;51.728;6.674;2023-04-24T10:09:25;99786.09;;;10.24;100.00
47753;BME280;2038;51.728;6.674;2023-04-24T10:11:54;99791.25;;;10.09;100.00
47753;BME280;2038;51.728;6.674;2023-04-24T10:14:24;99797.22;;;10.10;100.00
47753;BME280;2038;51.728;6.674;2023-04-24T10:16:54;99800.94;;;10.00;100.00
47753;BME280;2038;51.728;6.674;2023-04-24T10:19:23;99813.28;;;10.09;100.00
47753;BME280;2038;51.728;6.674;2023-04-24T10:21:51;99797.22;;;10.10;100.00
47753;BME280;2038;51.728;6.674;2023-04-24T10:24:20;99828.25;;;10.03;100.00
47753;BME280;2038;51.728;6.674;2023-04-24T10:26:47;99829.97;;;10.04;100.00
47753;BME280;2038;51.728;6.674;2023-04-24T10:29:16;99839.06;;;9.99;100.00
47753;BME280;2038;51.728;6.674;2023-04-24T10:31:43;99821.94;;;9.96;100.00
47753;BME280;2038;51.728;6.674;2023-04-24T10:34:15;99846.13;;;10.04;100.00
47753;BME280;2038;51.728;6.674;2023-04-24T10:36:48;99843.03;;;9.94;100.00
47753;BME280;2038;51.728;6.674;2023-04-24T10:39:17;99848.63;;;10.03;100.00
47753;BME280;2038;51.728;6.674;2023-04-24T10:41:45;99857.66;;;9.98;100.00
47753;BME280;2038;51.728;6.674;2023-04-24T10:44:14;99846.06;;;9.86;100.00
47753;BME280;2038;51.728;6.674;2023-04-24T10:46:45;99864.97;;;9.92;100.00
47753;BME280;2038;51.728;6.674;2023-04-24T10:49:28;99868.34;;;10.07;100.00
47753;BME280;2038;51.728;6.674;2023-04-24T10:52:02;99864.69;;;10.02;100.00
47753;BME280;2038;51.728;6.674;2023-04-24T10:54:36;99871.75;;;10.07;100.00
47753;BME280;2038;51.728;6.674;2023-04-24T10:59:46;99879.91;;;10.32;100.00
47753;BME280;2038;51.728;6.674;2023-04-24T11:02:17;99882.47;;;10.32;100.00
47753;BME280;2038;51.728;6.674;2023-04-24T11:04:45;99882.69;;;10.53;100.00
47753;BME280;2038;51.728;6.674;2023-04-24T11:07:12;99875.19;;;10.72;100.00
47753;BME280;2038;51.728;6.674;2023-04-24T11:09:39;99866.34;;;11.00;100.00
47753;BME280;2038;51.728;6.674;2023-04-24T11:12:10;99875.03;;;11.03;100.00
47753;BME280;2038;51.728;6.674;2023-04-24T11:17:34;99876.00;;;11.05;100.00
47753;BME280;2038;51.728;6.674;2023-04-24T11:20:04;99900.56;;;11.21;100.00
47753;BME280;2038;51.728;6.674;2023-04-24T11:22:39;99888.97;;;11.27;100.00
47753;BME280;2038;51.728;6.674;2023-04-24T11:25:06;99905.53;;;11.36;100.00
47753;BME280;2038;51.728;6.674;2023-04-24T11:27:39;99904.72;;;11.37;100.00
47753;BME280;2038;51.728;6.674;2023-04-24T11:30:08;99907.59;;;11.43;100.00
47753;BME280;2038;51.728;6.674;2023-04-24T11:32:41;99910.69;;;11.19;100.00
47753;BME280;2038;51.728;6.674;2023-04-24T11:35:19;99898.56;;;11.15;100.00
47753;BME280;2038;51.728;6.674;2023-04-24T11:37:54;99912.44;;;10.87;100.00
47753;BME280;2038;51.728;6.674;2023-04-24T11:40:21;99916.34;;;10.80;100.00
47753;BME280;2038;51.728;6.674;2023-04-24T11:42:50;99919.16;;;10.68;100.00
47753;BME280;2038;51.728;6.674;2023-04-24T11:45:22;99933.31;;;10.63;100.00
47753;BME280;2038;51.728;6.674;2023-04-24T11:47:50;99909.97;;;10.72;100.00
47753;BME280;2038;51.728;6.674;2023-04-24T11:50:18;99933.50;;;10.66;100.00
47753;BME280;2038;51.728;6.674;2023-04-24T11:52:47;99919.94;;;10.67;100.00
47753;BME280;2038;51.728;6.674;2023-04-24T11:57:43;99956.72;;;10.56;100.00
47753;BME280;2038;51.728;6.674;2023-04-24T12:00:19;99946.53;;;10.56;100.00
47753;BME280;2038;51.728;6.674;2023-04-24T12:02:48;99958.41;;;10.56;100.00
47753;BME280;2038;51.728;6.674;2023-04-24T12:05:28;99963.75;;;10.60;100.00
47753;BME280;2038;51.728;6.674;2023-04-24T12:07:56;99980.44;;;10.55;100.00
47753;BME280;2038;51.728;6.674;2023-04-24T12:10:24;99974.66;;;10.58;100.00
47753;BME280;2038;51.728;6.674;2023-04-24T12:12:53;99982.59;;;10.64;100.00
47753;BME280;2038;51.728;6.674;2023-04-24T12:15:21;99959.66;;;10.80;100.00
47753;BME280;2038;51.728;6.674;2023-04-24T12:17:50;99992.50;;;10.74;100.00
47753;BME280;2038;51.728;6.674;2023-04-24T12:20:19;99990.91;;;10.76;100.00
47753;BME280;2038;51.728;6.674;2023-04-24T12:23:00;99988.19;;;10.73;100.00
47753;BME280;2038;51.728;6.674;2023-04-24T12:25:29;99999.56;;;10.63;100.00
47753;BME280;2038;51.728;6.674;2023-04-24T12:30:35;100009.31;;;10.87;100.00
47753;BME280;2038;51.728;6.674;2023-04-24T12:33:06;100002.47;;;10.86;100.00
47753;BME280;2038;51.728;6.674;2023-04-24T12:35:33;99999.41;;;10.76;100.00
47753;BME280;2038;51.728;6.674;2023-04-24T12:38:10;100001.47;;;10.84;100.00
47753;BME280;2038;51.728;6.674;2023-04-24T12:40:39;100026.75;;;10.79;100.00
47753;BME280;2038;51.728;6.674;2023-04-24T12:43:18;100026.91;;;10.82;100.00
47753;BME280;2038;51.728;6.674;2023-04-24T12:45:47;100030.88;;;10.77;100.00
47753;BME280;2038;51.728;6.674;2023-04-24T12:48:13;100027.94;;;10.86;100.00
47753;BME280;2038;51.728;6.674;2023-04-24T12:50:40;100025.63;;;10.90;100.00
47753;BME280;2038;51.728;6.674;2023-04-24T12:53:07;100033.53;;;11.11;100.00
47753;BME280;2038;51.728;6.674;2023-04-24T12:55:34;100025.69;;;11.08;100.00
47753;BME280;2038;51.728;6.674;2023-04-24T12:58:01;100031.84;;;10.79;100.00
47753;BME280;2038;51.728;6.674;2023-04-24T13:00:29;100032.94;;;10.84;100.00
47753;BME280;2038;51.728;6.674;2023-04-24T13:02:55;100045.56;;;10.97;100.00
47753;BME280;2038;51.728;6.674;2023-04-24T13:05:21;100037.81;;;10.96;100.00
47753;BME280;2038;51.728;6.674;2023-04-24T13:07:48;100033.69;;;11.14;100.00
47753;BME280;2038;51.728;6.674;2023-04-24T13:10:14;100032.41;;;11.06;100.00
47753;BME280;2038;51.728;6.674;2023-04-24T13:12:40;100033.81;;;11.17;100.00